Luhe, China
Current Conditions -  °F | °C
As of 5:00 AM on Sunday 23 Nov 2014 (Local Time) from ZSNJ Reporting Station
Haze Haze  
Wind Chill: 59°   Ceiling: 4000
Heat Index: 59°   Visibility: 0.81mi
Dew Point: 57°   Wind: 9mph
Humidity: 94%   Direction: 100°E
Pressure: 30.09"   Gusts: NA
Location:  32.34°N, 118.84°E
Report Text: ZSNJ 222100Z 10004MPS 1300 R06/1500N R07/P2000 BRSCT011BKN040 15/14 Q1019 NOSIG
Loading
Personal Weather Stations






























Interactive Weather Map New forecast layout! Learn more

10-Day Weather Forecast

Advertisements
Track Severe Weather on mobile